Time;durP1;ratioP1;P1;durP2;ratioP2;P2;SDS_P1;SDS_P2;PMS_P1;PMS_P2;Temp;Humidity;BMP_temperature;BMP_pressure;BME280_temperature;BME280_humidity;BME280_pressure;Samples;Min_cycle;Max_cycle;Signal;HPM_P1;HPM_P2
2022/12/10 00:01:23;;;;;;;93.50;38.23;;;;;;;;;;5042186;28;20731;-75
2022/12/10 00:03:50;;;;;;;91.47;39.33;;;;;;;;;;5055349;28;20283;-77
2022/12/10 00:06:17;;;;;;;88.43;37.43;;;;;;;;;;5059029;28;20276;-76
2022/12/10 00:08:43;;;;;;;87.40;38.67;;;;;;;;;;5056080;28;20275;-76
2022/12/10 00:11:10;;;;;;;91.90;37.07;;;;;;;;;;5041072;28;20280;-76
2022/12/10 00:13:39;;;;;;;85.83;36.93;;;;;;;;;;5058447;28;20341;-76
2022/12/10 00:16:06;;;;;;;77.83;34.73;;;;;;;;;;5041182;28;20345;-76
2022/12/10 00:18:33;;;;;;;96.73;38.40;;;;;;;;;;5056850;28;20327;-77
2022/12/10 00:20:59;;;;;;;85.20;36.57;;;;;;;;;;5055737;28;20341;-77
2022/12/10 00:23:25;;;;;;;96.00;38.07;;;;;;;;;;5054829;28;20295;-77
2022/12/10 00:25:51;;;;;;;85.23;36.40;;;;;;;;;;5056541;28;20305;-76
2022/12/10 00:28:17;;;;;;;87.30;38.33;;;;;;;;;;5053828;28;20311;-77
2022/12/10 00:30:46;;;;;;;82.77;36.50;;;;;;;;;;5057640;28;20381;-77
2022/12/10 00:33:12;;;;;;;96.33;38.07;;;;;;;;;;5055855;28;20268;-75
2022/12/10 00:35:38;;;;;;;98.17;39.47;;;;;;;;;;5056256;28;20279;-76
2022/12/10 00:38:06;;;;;;;88.70;37.17;;;;;;;;;;5039637;28;20272;-76
2022/12/10 00:40:33;;;;;;;94.73;37.50;;;;;;;;;;5056578;28;20287;-76
2022/12/10 00:42:59;;;;;;;97.73;39.13;;;;;;;;;;5056957;28;20337;-76
2022/12/10 00:45:27;;;;;;;94.97;38.70;;;;;;;;;;5041138;28;20271;-76
2022/12/10 00:47:53;;;;;;;88.47;36.10;;;;;;;;;;5055749;28;20272;-77
2022/12/10 00:50:22;;;;;;;88.13;38.77;;;;;;;;;;5061648;28;20302;-77
2022/12/10 00:52:48;;;;;;;88.83;36.43;;;;;;;;;;5059329;28;20278;-76
2022/12/10 00:55:14;;;;;;;92.73;37.47;;;;;;;;;;5056729;28;20271;-77
2022/12/10 00:57:40;;;;;;;97.10;37.87;;;;;;;;;;5059598;28;20291;-77
2022/12/10 01:00:06;;;;;;;103.77;41.93;;;;;;;;;;5058114;28;20279;-77
2022/12/10 01:02:32;;;;;;;98.17;40.03;;;;;;;;;;5057656;28;21040;-77
2022/12/10 01:04:58;;;;;;;108.70;41.47;;;;;;;;;;5058406;28;20280;-76
2022/12/10 01:07:27;;;;;;;114.47;43.03;;;;;;;;;;5046601;28;20287;-75
2022/12/10 01:09:57;;;;;;;117.40;40.57;;;;;;;;;;5060714;28;20287;-75
2022/12/10 01:12:23;;;;;;;112.10;40.73;;;;;;;;;;5058821;28;20267;-77
2022/12/10 01:14:50;;;;;;;96.07;38.43;;;;;;;;;;5057961;28;20276;-76
2022/12/10 01:17:25;;;;;;;90.70;36.63;;;;;;;;;;5063535;28;20279;-76
2022/12/10 01:19:53;;;;;;;101.67;37.17;;;;;;;;;;5064594;28;20281;-77
2022/12/10 01:22:19;;;;;;;94.60;38.27;;;;;;;;;;5062039;28;20271;-76
2022/12/10 01:24:45;;;;;;;90.97;38.17;;;;;;;;;;5060825;28;20283;-76
2022/12/10 01:31:05;;;;;;;96.13;37.60;;;;;;;;;;5049474;28;20339;-76
2022/12/10 01:33:31;;;;;;;96.20;36.30;;;;;;;;;;5054344;28;20279;-77
2022/12/10 01:36:04;;;;;;;104.67;37.77;;;;;;;;;;5068894;28;20260;-77
2022/12/10 01:41:35;;;;;;;92.60;35.17;;;;;;;;;;5056809;28;20231;-77
2022/12/10 01:44:04;;;;;;;83.83;36.23;;;;;;;;;;5070085;28;20286;-76
2022/12/10 01:46:31;;;;;;;98.20;39.57;;;;;;;;;;5056485;28;20267;-76
2022/12/10 01:48:58;;;;;;;95.50;37.17;;;;;;;;;;5057826;28;20259;-74
2022/12/10 01:51:28;;;;;;;107.77;40.40;;;;;;;;;;5063629;28;20264;-76
2022/12/10 01:53:54;;;;;;;95.57;37.63;;;;;;;;;;5064681;28;20271;-76
2022/12/10 01:56:48;;;;;;;89.57;34.53;;;;;;;;;;5068148;28;20278;-76
2022/12/10 01:59:14;;;;;;;96.03;36.07;;;;;;;;;;5075369;28;20568;-75
2022/12/10 02:01:46;;;;;;;88.97;35.77;;;;;;;;;;5067167;28;20357;-76
2022/12/10 02:04:31;;;;;;;93.67;36.43;;;;;;;;;;5066847;28;20288;-76
2022/12/10 02:07:01;;;;;;;99.83;37.33;;;;;;;;;;5065968;28;20265;-76
2022/12/10 02:09:41;;;;;;;108.00;37.30;;;;;;;;;;5054135;28;20662;-77
2022/12/10 02:12:12;;;;;;;97.97;38.37;;;;;;;;;;5068733;28;20287;-77
2022/12/10 02:14:47;;;;;;;98.90;36.87;;;;;;;;;;5066900;28;20263;-77
2022/12/10 02:17:31;;;;;;;105.47;38.30;;;;;;;;;;5071166;28;20271;-76
2022/12/10 02:19:57;;;;;;;100.87;37.30;;;;;;;;;;5051820;28;20805;-76
2022/12/10 02:22:24;;;;;;;96.87;36.40;;;;;;;;;;5081442;28;20389;-76
2022/12/10 02:24:52;;;;;;;105.90;38.17;;;;;;;;;;5064091;28;21092;-76
2022/12/10 02:27:32;;;;;;;106.30;39.47;;;;;;;;;;5065345;28;20377;-76
2022/12/10 02:29:59;;;;;;;111.40;37.60;;;;;;;;;;5056875;28;20267;-76
2022/12/10 02:32:27;;;;;;;111.07;36.93;;;;;;;;;;5082111;28;20266;-76
2022/12/10 02:34:55;;;;;;;113.33;38.60;;;;;;;;;;5060596;28;20565;-76
2022/12/10 02:37:24;;;;;;;106.43;37.83;;;;;;;;;;5073572;28;20278;-76
2022/12/10 02:39:58;;;;;;;112.93;38.07;;;;;;;;;;5072826;28;20267;-76
2022/12/10 02:42:26;;;;;;;109.10;38.27;;;;;;;;;;5065586;28;20288;-76
2022/12/10 02:44:52;;;;;;;124.03;36.60;;;;;;;;;;5068495;28;20690;-76
2022/12/10 02:47:19;;;;;;;101.63;36.63;;;;;;;;;;5058981;28;20588;-76
2022/12/10 02:49:47;;;;;;;101.30;37.40;;;;;;;;;;5073815;28;20275;-76
2022/12/10 02:52:14;;;;;;;98.57;37.23;;;;;;;;;;5049432;28;20260;-76
2022/12/10 02:54:47;;;;;;;100.90;36.60;;;;;;;;;;5068994;28;20267;-76
2022/12/10 02:57:19;;;;;;;104.03;35.37;;;;;;;;;;5050567;28;20347;-76
2022/12/10 03:00:06;;;;;;;122.40;38.33;;;;;;;;;;5063609;28;20268;-76
2022/12/10 03:02:35;;;;;;;129.07;38.37;;;;;;;;;;5072022;28;20351;-76
2022/12/10 03:05:04;;;;;;;125.23;39.80;;;;;;;;;;5065790;28;20381;-77
2022/12/10 03:07:40;;;;;;;130.83;41.37;;;;;;;;;;5042488;28;20264;-76
2022/12/10 03:10:21;;;;;;;122.53;38.97;;;;;;;;;;5068545;28;21145;-75
2022/12/10 03:12:52;;;;;;;110.97;37.50;;;;;;;;;;5056827;28;20333;-76
2022/12/10 03:15:22;;;;;;;111.77;37.70;;;;;;;;;;5070888;28;20294;-76
2022/12/10 03:17:49;;;;;;;106.97;36.93;;;;;;;;;;5055075;28;20248;-76
2022/12/10 03:20:17;;;;;;;115.13;40.73;;;;;;;;;;5046360;28;20256;-75
2022/12/10 03:22:45;;;;;;;112.20;39.00;;;;;;;;;;5052791;28;20254;-76
2022/12/10 03:25:11;;;;;;;115.73;38.70;;;;;;;;;;5070131;28;20279;-77
2022/12/10 03:27:39;;;;;;;112.00;38.17;;;;;;;;;;5067813;28;20279;-76
2022/12/10 03:30:06;;;;;;;107.93;38.30;;;;;;;;;;5055487;28;20271;-76
2022/12/10 03:32:32;;;;;;;115.53;39.00;;;;;;;;;;5063443;28;20351;-76
2022/12/10 03:34:59;;;;;;;121.53;40.13;;;;;;;;;;5051095;28;20280;-76
2022/12/10 03:37:26;;;;;;;111.70;38.50;;;;;;;;;;5061935;28;20272;-77
2022/12/10 03:39:52;;;;;;;95.33;37.17;;;;;;;;;;5055523;28;20271;-76
2022/12/10 03:42:18;;;;;;;115.23;38.03;;;;;;;;;;5056031;28;20279;-76
2022/12/10 03:44:44;;;;;;;100.13;36.53;;;;;;;;;;5065010;28;20287;-75
2022/12/10 03:47:12;;;;;;;108.97;39.80;;;;;;;;;;5065824;28;20302;-76
2022/12/10 03:49:39;;;;;;;102.10;36.10;;;;;;;;;;5072119;28;20259;-76
2022/12/10 03:52:05;;;;;;;117.27;37.33;;;;;;;;;;5053617;28;20318;-76
2022/12/10 03:54:31;;;;;;;97.10;36.17;;;;;;;;;;5053715;28;20588;-77
2022/12/10 03:56:57;;;;;;;101.70;35.20;;;;;;;;;;5055155;28;20724;-76
2022/12/10 03:59:23;;;;;;;96.87;36.13;;;;;;;;;;5062284;28;20313;-76
2022/12/10 04:01:49;;;;;;;102.73;37.07;;;;;;;;;;5078614;28;20260;-76
2022/12/10 04:04:15;;;;;;;94.83;35.13;;;;;;;;;;5066787;28;20280;-76
2022/12/10 04:06:41;;;;;;;91.83;35.63;;;;;;;;;;5052900;28;20271;-76
2022/12/10 04:09:10;;;;;;;90.73;33.90;;;;;;;;;;5045598;28;20344;-76
2022/12/10 04:11:36;;;;;;;90.83;35.43;;;;;;;;;;5049139;28;20374;-76
2022/12/10 04:16:46;;;;;;;91.53;35.30;;;;;;;;;;5044938;28;20593;-76
2022/12/10 04:19:14;;;;;;;92.90;34.93;;;;;;;;;;5059576;28;20280;-76
2022/12/10 04:27:15;;;;;;;90.13;35.40;;;;;;;;;;5056809;28;20270;-76
2022/12/10 04:29:41;;;;;;;88.73;35.60;;;;;;;;;;5066053;28;20290;-77
2022/12/10 04:32:07;;;;;;;89.23;35.30;;;;;;;;;;5050828;28;20274;-75
2022/12/10 04:34:33;;;;;;;87.93;34.63;;;;;;;;;;5057976;28;20271;-76
2022/12/10 04:37:00;;;;;;;86.40;33.43;;;;;;;;;;5054164;28;20267;-76
2022/12/10 04:39:26;;;;;;;90.43;35.43;;;;;;;;;;5056886;28;20346;-76
2022/12/10 04:41:52;;;;;;;90.50;34.83;;;;;;;;;;5051966;28;20274;-76
2022/12/10 04:44:19;;;;;;;84.03;34.70;;;;;;;;;;5062901;28;20378;-76
2022/12/10 04:46:45;;;;;;;90.53;33.23;;;;;;;;;;5068357;28;20259;-76
2022/12/10 04:49:11;;;;;;;96.90;35.33;;;;;;;;;;5071165;28;20275;-77
2022/12/10 04:51:37;;;;;;;86.97;34.97;;;;;;;;;;5057514;28;20271;-77
2022/12/10 04:54:04;;;;;;;81.17;33.00;;;;;;;;;;5069400;28;20391;-76
2022/12/10 04:56:30;;;;;;;84.83;33.33;;;;;;;;;;5052851;28;20268;-77
2022/12/10 04:58:59;;;;;;;88.70;34.83;;;;;;;;;;5071649;28;20259;-77
2022/12/10 05:01:26;;;;;;;87.50;33.60;;;;;;;;;;5070790;28;20730;-76
2022/12/10 05:03:52;;;;;;;85.60;33.70;;;;;;;;;;5052153;28;20291;-76
2022/12/10 05:06:19;;;;;;;90.93;35.13;;;;;;;;;;5076548;28;20259;-77
2022/12/10 05:08:47;;;;;;;86.87;33.03;;;;;;;;;;5059977;28;20271;-77
2022/12/10 05:11:15;;;;;;;84.80;34.83;;;;;;;;;;5073328;28;20654;-77
2022/12/10 05:13:42;;;;;;;86.80;35.00;;;;;;;;;;5059636;28;20255;-76
2022/12/10 05:16:09;;;;;;;91.60;34.80;;;;;;;;;;5044067;28;20287;-76
2022/12/10 05:18:36;;;;;;;82.40;33.07;;;;;;;;;;5038101;28;20989;-77
2022/12/10 05:21:03;;;;;;;90.30;35.43;;;;;;;;;;5055252;28;20272;-76
2022/12/10 05:23:29;;;;;;;88.67;35.23;;;;;;;;;;5055279;28;20292;-76
2022/12/10 05:26:14;;;;;;;94.73;34.37;;;;;;;;;;5056494;28;20276;-76
2022/12/10 05:28:53;;;;;;;93.80;34.63;;;;;;;;;;5056152;28;20269;-76
2022/12/10 05:31:21;;;;;;;82.87;33.47;;;;;;;;;;5056112;28;20272;-76
2022/12/10 05:33:50;;;;;;;85.57;33.80;;;;;;;;;;5055615;28;20279;-76
2022/12/10 05:36:18;;;;;;;86.93;34.70;;;;;;;;;;5057113;28;20326;-76
2022/12/10 05:38:46;;;;;;;91.10;32.23;;;;;;;;;;5055807;28;20272;-76
2022/12/10 05:41:14;;;;;;;80.47;33.40;;;;;;;;;;5054648;28;20283;-77
2022/12/10 05:43:40;;;;;;;88.00;33.70;;;;;;;;;;5057790;28;20291;-76
2022/12/10 05:46:07;;;;;;;87.70;33.83;;;;;;;;;;5057938;28;20329;-75
2022/12/10 05:48:34;;;;;;;85.97;34.87;;;;;;;;;;5055025;28;20358;-76
2022/12/10 05:51:11;;;;;;;87.57;35.07;;;;;;;;;;5056982;28;20635;-77
2022/12/10 05:53:37;;;;;;;88.47;34.00;;;;;;;;;;5053423;28;20272;-76
2022/12/10 05:56:04;;;;;;;87.93;34.53;;;;;;;;;;5053581;28;20280;-76
2022/12/10 05:58:30;;;;;;;85.70;35.97;;;;;;;;;;5055161;28;20317;-77
2022/12/10 06:00:57;;;;;;;86.73;34.67;;;;;;;;;;5054389;28;20268;-76
2022/12/10 06:03:23;;;;;;;92.53;36.83;;;;;;;;;;5054075;28;20287;-76
2022/12/10 06:05:51;;;;;;;84.37;35.13;;;;;;;;;;5043310;28;20272;-76
2022/12/10 06:08:17;;;;;;;81.80;35.23;;;;;;;;;;5057519;28;20280;-76
2022/12/10 06:10:43;;;;;;;84.97;35.00;;;;;;;;;;5056415;28;20302;-76
2022/12/10 06:13:09;;;;;;;84.80;33.70;;;;;;;;;;5056437;28;20323;-76
2022/12/10 06:15:39;;;;;;;81.83;33.57;;;;;;;;;;5059778;28;20712;-77
2022/12/10 06:18:05;;;;;;;75.47;33.03;;;;;;;;;;5057806;28;20295;-77
2022/12/10 06:20:31;;;;;;;77.37;33.90;;;;;;;;;;5058013;28;20280;-76
2022/12/10 06:22:57;;;;;;;78.43;34.03;;;;;;;;;;5059697;28;20872;-76
2022/12/10 06:25:23;;;;;;;76.73;33.37;;;;;;;;;;5060551;28;20316;-77
2022/12/10 06:27:49;;;;;;;81.17;34.10;;;;;;;;;;5059734;28;20267;-77
2022/12/10 06:30:15;;;;;;;82.07;33.57;;;;;;;;;;5063815;28;20316;-76
2022/12/10 06:32:42;;;;;;;78.33;34.50;;;;;;;;;;5059902;28;20349;-76
2022/12/10 06:35:09;;;;;;;81.03;33.03;;;;;;;;;;5060897;28;20286;-76
2022/12/10 06:37:35;;;;;;;76.97;33.77;;;;;;;;;;5060869;28;20872;-78
2022/12/10 06:40:01;;;;;;;84.13;34.23;;;;;;;;;;5047902;28;20290;-77
2022/12/10 06:42:29;;;;;;;79.80;32.67;;;;;;;;;;5059558;28;20476;-76
2022/12/10 06:44:55;;;;;;;81.27;33.03;;;;;;;;;;5060106;28;20292;-77
2022/12/10 06:47:24;;;;;;;79.93;33.43;;;;;;;;;;5061902;28;20283;-76
2022/12/10 06:49:50;;;;;;;77.97;33.07;;;;;;;;;;5057469;28;20268;-77
2022/12/10 06:52:18;;;;;;;79.03;32.93;;;;;;;;;;5058366;28;20362;-76
2022/12/10 06:54:44;;;;;;;79.93;33.07;;;;;;;;;;5058383;28;20280;-77
2022/12/10 06:57:10;;;;;;;82.33;32.97;;;;;;;;;;5052643;28;20358;-77
2022/12/10 06:59:36;;;;;;;71.17;31.40;;;;;;;;;;5060342;28;20314;-75
2022/12/10 07:02:02;;;;;;;86.40;34.07;;;;;;;;;;5061969;28;20279;-77
2022/12/10 07:04:28;;;;;;;83.23;34.03;;;;;;;;;;5056945;28;20341;-76
2022/12/10 07:06:54;;;;;;;83.60;33.80;;;;;;;;;;5057506;28;20280;-76
2022/12/10 07:09:22;;;;;;;74.20;33.40;;;;;;;;;;5059206;28;21935;-76
2022/12/10 07:11:48;;;;;;;79.00;34.73;;;;;;;;;;5058975;28;20272;-76
2022/12/10 07:14:17;;;;;;;82.50;34.17;;;;;;;;;;5056637;28;20283;-76
2022/12/10 07:16:44;;;;;;;104.53;34.07;;;;;;;;;;5064073;28;20966;-77
2022/12/10 07:19:11;;;;;;;98.37;36.20;;;;;;;;;;5067359;28;20740;-76
2022/12/10 07:21:38;;;;;;;91.63;35.77;;;;;;;;;;5062205;28;20271;-77
2022/12/10 07:24:06;;;;;;;88.43;35.63;;;;;;;;;;5056056;28;20773;-76
2022/12/10 07:26:34;;;;;;;86.57;34.80;;;;;;;;;;5058694;28;20304;-76
2022/12/10 07:29:01;;;;;;;92.30;36.87;;;;;;;;;;5049571;28;20260;-77
2022/12/10 07:31:27;;;;;;;102.50;39.27;;;;;;;;;;5043453;28;20272;-76
2022/12/10 07:33:53;;;;;;;96.90;37.97;;;;;;;;;;5070859;28;20719;-77
2022/12/10 07:36:23;;;;;;;96.17;39.07;;;;;;;;;;5058349;28;20295;-76
2022/12/10 07:38:49;;;;;;;91.37;36.93;;;;;;;;;;5055709;28;20339;-76
2022/12/10 07:41:15;;;;;;;97.30;37.27;;;;;;;;;;5070894;28;20297;-77
2022/12/10 07:43:42;;;;;;;91.70;38.73;;;;;;;;;;5042945;28;20299;-76
2022/12/10 07:46:08;;;;;;;93.07;36.73;;;;;;;;;;5049223;28;20264;-76
2022/12/10 07:48:38;;;;;;;94.93;36.17;;;;;;;;;;5060227;28;20268;-76
2022/12/10 07:51:04;;;;;;;95.13;38.10;;;;;;;;;;5054151;28;20346;-77
2022/12/10 07:53:30;;;;;;;98.47;38.50;;;;;;;;;;5043823;28;20251;-76
2022/12/10 07:55:56;;;;;;;105.10;40.03;;;;;;;;;;5063638;28;20351;-77
2022/12/10 07:58:22;;;;;;;110.87;44.47;;;;;;;;;;5065226;28;20259;-76
2022/12/10 08:00:48;;;;;;;123.13;45.47;;;;;;;;;;5060850;28;20272;-77
2022/12/10 08:03:14;;;;;;;126.83;44.37;;;;;;;;;;5063789;28;20263;-76
2022/12/10 08:05:40;;;;;;;130.70;45.80;;;;;;;;;;5057799;28;20489;-77
2022/12/10 08:08:06;;;;;;;136.57;48.97;;;;;;;;;;5053623;28;20609;-76
2022/12/10 08:10:36;;;;;;;148.87;50.23;;;;;;;;;;5067768;28;20298;-76
2022/12/10 08:13:03;;;;;;;156.60;48.33;;;;;;;;;;5038049;28;20318;-76
2022/12/10 08:15:29;;;;;;;152.20;52.40;;;;;;;;;;5054411;28;20339;-77
2022/12/10 08:17:55;;;;;;;164.87;54.23;;;;;;;;;;5055267;28;20358;-76
2022/12/10 08:20:21;;;;;;;155.83;52.63;;;;;;;;;;5072003;28;20325;-76
2022/12/10 08:22:47;;;;;;;168.53;55.53;;;;;;;;;;5058979;28;20346;-76
2022/12/10 08:25:16;;;;;;;165.97;55.73;;;;;;;;;;5053389;28;20357;-76
2022/12/10 08:27:44;;;;;;;153.30;52.90;;;;;;;;;;5058873;28;20260;-76
2022/12/10 08:30:10;;;;;;;164.00;54.70;;;;;;;;;;5055732;28;20264;-76
2022/12/10 08:32:36;;;;;;;168.50;54.50;;;;;;;;;;5071715;28;20260;-76
2022/12/10 08:35:02;;;;;;;159.43;52.80;;;;;;;;;;5042677;28;20279;-76
2022/12/10 08:37:31;;;;;;;170.10;56.37;;;;;;;;;;5062984;28;20259;-76
2022/12/10 08:39:57;;;;;;;170.07;54.53;;;;;;;;;;5062778;28;20272;-77
2022/12/10 08:42:25;;;;;;;162.03;52.00;;;;;;;;;;5055506;28;20291;-76
2022/12/10 08:44:51;;;;;;;160.50;50.40;;;;;;;;;;5073489;28;20291;-76
2022/12/10 08:47:17;;;;;;;144.10;49.90;;;;;;;;;;5047088;28;20267;-75
2022/12/10 08:49:43;;;;;;;157.63;53.07;;;;;;;;;;5053435;28;20272;-77
2022/12/10 08:52:09;;;;;;;158.60;51.60;;;;;;;;;;5056016;28;20319;-76
2022/12/10 08:54:37;;;;;;;150.70;51.67;;;;;;;;;;5059442;28;20284;-76
2022/12/10 08:57:03;;;;;;;145.67;49.60;;;;;;;;;;5054887;28;20272;-76
2022/12/10 08:59:29;;;;;;;145.20;53.37;;;;;;;;;;5062373;28;20317;-77
2022/12/10 09:01:55;;;;;;;141.77;48.50;;;;;;;;;;5072239;28;20290;-76
2022/12/10 09:04:21;;;;;;;130.97;48.50;;;;;;;;;;5070303;28;20754;-77
2022/12/10 09:06:47;;;;;;;136.67;50.17;;;;;;;;;;5072560;28;20268;-76
2022/12/10 09:09:13;;;;;;;133.00;50.53;;;;;;;;;;5066145;28;20430;-77
2022/12/10 09:11:39;;;;;;;136.00;50.33;;;;;;;;;;5051160;28;20829;-76
2022/12/10 09:14:05;;;;;;;138.00;49.60;;;;;;;;;;5061660;28;20363;-76
2022/12/10 09:16:34;;;;;;;131.77;48.07;;;;;;;;;;5067577;28;20263;-77
2022/12/10 09:19:00;;;;;;;134.00;48.73;;;;;;;;;;5058826;28;20261;-77
2022/12/10 09:21:26;;;;;;;128.83;49.67;;;;;;;;;;5050552;28;20272;-76
2022/12/10 09:23:52;;;;;;;122.43;47.83;;;;;;;;;;5036395;28;20345;-76
2022/12/10 09:26:19;;;;;;;129.97;47.83;;;;;;;;;;5051021;28;20260;-77
2022/12/10 09:28:45;;;;;;;131.70;48.73;;;;;;;;;;5061365;28;20648;-76
2022/12/10 09:31:12;;;;;;;124.93;48.77;;;;;;;;;;5045400;28;20259;-77
2022/12/10 09:33:38;;;;;;;123.43;47.90;;;;;;;;;;5063089;28;20728;-76
2022/12/10 09:36:06;;;;;;;118.57;47.63;;;;;;;;;;5034772;28;20367;-77
2022/12/10 09:38:33;;;;;;;117.37;44.87;;;;;;;;;;5059539;28;20283;-76
2022/12/10 09:41:18;;;;;;;118.57;47.90;;;;;;;;;;5036783;28;20264;-77
2022/12/10 09:43:49;;;;;;;119.43;48.77;;;;;;;;;;5061105;28;20710;-76
2022/12/10 09:46:26;;;;;;;124.53;49.20;;;;;;;;;;5056670;28;20351;-76
2022/12/10 09:48:55;;;;;;;124.60;48.00;;;;;;;;;;5062733;28;20303;-76
2022/12/10 09:51:26;;;;;;;117.27;45.40;;;;;;;;;;5043926;28;20273;-76
2022/12/10 09:53:58;;;;;;;122.87;46.37;;;;;;;;;;5061695;28;20259;-76
2022/12/10 09:56:27;;;;;;;114.18;46.38;;;;;;;;;;5047286;28;20271;-76
2022/12/10 09:58:53;;;;;;;111.57;42.53;;;;;;;;;;5068111;28;20028;-76
2022/12/10 10:01:21;;;;;;;113.33;46.13;;;;;;;;;;5062991;28;20264;-77
2022/12/10 10:03:47;;;;;;;118.23;45.57;;;;;;;;;;5061918;28;20279;-76
2022/12/10 10:06:13;;;;;;;124.20;56.73;;;;;;;;;;5061742;28;20354;-76
2022/12/10 10:08:47;;;;;;;105.67;44.07;;;;;;;;;;5064002;28;20402;-77
2022/12/10 10:11:16;;;;;;;110.33;46.43;;;;;;;;;;5046638;28;20263;-77
2022/12/10 10:14:04;;;;;;;106.70;45.53;;;;;;;;;;5051448;28;20573;-77
2022/12/10 10:16:50;;;;;;;101.17;41.37;;;;;;;;;;5060965;28;20264;-77
2022/12/10 10:19:21;;;;;;;104.00;43.13;;;;;;;;;;5048705;28;20728;-76
2022/12/10 10:21:48;;;;;;;108.07;44.07;;;;;;;;;;5048849;28;20264;-76
2022/12/10 10:24:16;;;;;;;114.57;47.13;;;;;;;;;;5065231;28;20275;-76
2022/12/10 10:26:42;;;;;;;106.80;43.40;;;;;;;;;;5070035;28;20275;-76
2022/12/10 10:29:10;;;;;;;110.57;44.67;;;;;;;;;;5068808;28;20264;-77
2022/12/10 10:31:40;;;;;;;107.40;42.60;;;;;;;;;;5054023;28;20283;-76
2022/12/10 10:34:13;;;;;;;110.40;45.67;;;;;;;;;;5066490;28;20272;-75
2022/12/10 10:36:40;;;;;;;106.32;41.30;;;;;;;;;;5072765;28;20271;-76
2022/12/10 10:39:21;;;;;;;111.43;44.00;;;;;;;;;;5070823;28;20139;-75
2022/12/10 10:41:50;;;;;;;105.90;40.97;;;;;;;;;;5068808;28;20267;-75
2022/12/10 10:44:21;;;;;;;100.70;43.23;;;;;;;;;;5061643;28;20280;-76
2022/12/10 10:46:49;;;;;;;102.93;43.03;;;;;;;;;;5066914;28;20299;-76
2022/12/10 10:49:19;;;;;;;102.40;40.50;;;;;;;;;;5063002;28;20260;-76
2022/12/10 10:51:45;;;;;;;96.17;41.93;;;;;;;;;;5068687;28;20276;-75
2022/12/10 10:54:12;;;;;;;97.13;41.00;;;;;;;;;;5060162;28;20272;-78
2022/12/10 10:56:45;;;;;;;117.93;47.30;;;;;;;;;;5060100;28;20283;-77
2022/12/10 10:59:16;;;;;;;101.83;47.60;;;;;;;;;;5072572;28;20267;-77
2022/12/10 11:01:51;;;;;;;95.00;41.73;;;;;;;;;;5047213;28;20260;-76
2022/12/10 11:04:19;;;;;;;93.23;36.87;;;;;;;;;;5069636;28;20279;-78
2022/12/10 11:06:46;;;;;;;102.47;44.43;;;;;;;;;;5064799;28;20272;-76
2022/12/10 11:09:20;;;;;;;92.97;41.77;;;;;;;;;;5070298;28;20736;-77
2022/12/10 11:11:50;;;;;;;96.37;41.47;;;;;;;;;;5073337;28;20291;-76
2022/12/10 11:14:28;;;;;;;89.73;40.33;;;;;;;;;;5046972;28;20350;-75
2022/12/10 11:17:01;;;;;;;91.20;37.60;;;;;;;;;;5055714;28;20287;-76
2022/12/10 11:19:27;;;;;;;86.20;37.77;;;;;;;;;;5052916;28;20276;-76
2022/12/10 11:21:53;;;;;;;80.33;36.53;;;;;;;;;;5058322;28;20280;-75
2022/12/10 11:24:22;;;;;;;89.27;37.93;;;;;;;;;;5042274;28;20358;-76
2022/12/10 11:27:05;;;;;;;87.97;39.83;;;;;;;;;;5041035;28;20601;-76
2022/12/10 11:29:54;;;;;;;71.13;33.78;;;;;;;;;;5042489;28;20283;-76
2022/12/10 11:32:30;;;;;;;70.97;30.73;;;;;;;;;;5054097;28;20028;-76
2022/12/10 11:34:56;;;;;;;76.87;33.70;;;;;;;;;;5055686;28;20350;-76
2022/12/10 11:37:31;;;;;;;70.50;31.20;;;;;;;;;;5057007;28;20283;-77
2022/12/10 11:40:06;;;;;;;80.80;35.47;;;;;;;;;;5057490;28;20025;-77
2022/12/10 11:42:47;;;;;;;166.63;83.83;;;;;;;;;;5059295;28;20280;-76
2022/12/10 11:45:19;;;;;;;73.70;35.27;;;;;;;;;;5056962;28;20284;-77
2022/12/10 11:47:55;;;;;;;69.47;30.02;;;;;;;;;;5057725;28;20341;-76
2022/12/10 11:50:54;;;;;;;63.90;29.83;;;;;;;;;;5055868;28;20025;-77
2022/12/10 11:53:26;;;;;;;62.70;29.07;;;;;;;;;;5030382;28;20304;-78
2022/12/10 11:56:07;;;;;;;64.20;29.58;;;;;;;;;;5058389;28;20276;-76
2022/12/10 11:58:52;;;;;;;62.83;28.70;;;;;;;;;;5056540;28;20021;-77
2022/12/10 12:01:29;;;;;;;58.00;27.83;;;;;;;;;;5055532;28;20329;-78
2022/12/10 12:04:14;;;;;;;59.93;28.90;;;;;;;;;;5060074;28;20767;-78
2022/12/10 12:07:00;;;;;;;81.33;38.97;;;;;;;;;;5054024;28;20309;-77
2022/12/10 12:09:32;;;;;;;65.40;30.87;;;;;;;;;;5037204;28;20287;-75
2022/12/10 12:12:10;;;;;;;65.18;30.00;;;;;;;;;;5057871;28;21200;-77
2022/12/10 12:14:36;;;;;;;61.60;29.57;;;;;;;;;;5057205;28;20026;-78
2022/12/10 12:17:07;;;;;;;67.60;32.73;;;;;;;;;;5062191;28;20441;-77
2022/12/10 12:19:41;;;;;;;57.77;27.80;;;;;;;;;;5056884;28;20034;-77
2022/12/10 12:22:27;;;;;;;68.90;31.97;;;;;;;;;;5055403;28;20026;-77
2022/12/10 12:25:01;;;;;;;68.73;32.00;;;;;;;;;;5057807;28;20294;-78
2022/12/10 12:27:38;;;;;;;63.17;30.97;;;;;;;;;;5056317;28;21029;-78
2022/12/10 12:30:07;;;;;;;66.77;30.93;;;;;;;;;;5056094;28;20333;-77
2022/12/10 12:32:43;;;;;;;129.10;60.67;;;;;;;;;;5053167;28;20287;-78
2022/12/10 12:35:13;;;;;;;75.90;34.47;;;;;;;;;;5039334;28;21437;-77
2022/12/10 12:37:43;;;;;;;61.43;30.30;;;;;;;;;;5052570;28;20303;-78
2022/12/10 12:40:12;;;;;;;71.00;31.93;;;;;;;;;;5054277;28;20275;-77
2022/12/10 12:42:45;;;;;;;71.00;32.10;;;;;;;;;;5039106;28;20351;-77
2022/12/10 12:45:17;;;;;;;82.77;36.57;;;;;;;;;;5053922;28;20292;-78
2022/12/10 12:48:02;;;;;;;68.33;32.83;;;;;;;;;;5054547;28;20294;-77
2022/12/10 12:50:37;;;;;;;69.70;31.30;;;;;;;;;;5055575;28;20036;-78
2022/12/10 12:53:07;;;;;;;61.80;30.17;;;;;;;;;;5054798;28;20357;-77
2022/12/10 12:55:56;;;;;;;61.57;32.57;;;;;;;;;;5056362;28;20344;-77
2022/12/10 12:58:34;;;;;;;63.50;29.40;;;;;;;;;;5055534;28;20437;-77
2022/12/10 13:01:16;;;;;;;67.53;29.40;;;;;;;;;;5055175;28;20470;-77
2022/12/10 13:03:44;;;;;;;58.97;29.95;;;;;;;;;;5053763;28;20361;-76
2022/12/10 13:06:13;;;;;;;58.13;28.03;;;;;;;;;;5047855;28;20087;-76
2022/12/10 13:08:43;;;;;;;64.43;31.47;;;;;;;;;;5039121;28;20271;-78
2022/12/10 13:11:14;;;;;;;56.53;28.60;;;;;;;;;;5041348;28;20291;-77
2022/12/10 13:13:42;;;;;;;63.37;30.60;;;;;;;;;;5055619;28;20017;-77
2022/12/10 13:16:27;;;;;;;59.03;27.93;;;;;;;;;;5063534;28;20021;-78
2022/12/10 13:19:13;;;;;;;55.87;27.80;;;;;;;;;;5064305;28;20268;-77
2022/12/10 13:21:57;;;;;;;60.70;28.77;;;;;;;;;;5046292;28;20087;-78
2022/12/10 13:24:36;;;;;;;56.50;27.67;;;;;;;;;;5058304;28;20025;-77
2022/12/10 13:27:15;;;;;;;61.93;29.40;;;;;;;;;;5045385;28;20442;-77
2022/12/10 13:29:44;;;;;;;63.20;29.93;;;;;;;;;;5059868;28;20029;-78
2022/12/10 13:32:19;;;;;;;67.87;31.87;;;;;;;;;;5053394;28;20021;-78
2022/12/10 13:34:45;;;;;;;62.43;29.20;;;;;;;;;;5059409;28;20071;-78
2022/12/10 13:37:15;;;;;;;60.37;27.23;;;;;;;;;;5063642;28;20029;-75
2022/12/10 13:39:47;;;;;;;57.13;28.73;;;;;;;;;;5065561;28;20048;-80
2022/12/10 13:45:23;;;;;;;59.40;29.20;;;;;;;;;;5048603;28;20063;-77
2022/12/10 13:47:52;;;;;;;62.00;28.93;;;;;;;;;;5047905;28;20017;-78
2022/12/10 13:50:18;;;;;;;58.57;29.37;;;;;;;;;;5062162;28;20036;-77
2022/12/10 13:53:03;;;;;;;59.13;29.20;;;;;;;;;;5064355;28;20027;-77
2022/12/10 13:55:45;;;;;;;68.63;29.87;;;;;;;;;;5071082;28;20279;-78
2022/12/10 13:58:30;;;;;;;66.70;31.80;;;;;;;;;;5043098;28;20288;-78
2022/12/10 14:00:59;;;;;;;67.03;28.33;;;;;;;;;;5038979;28;20340;-77
2022/12/10 14:03:37;;;;;;;316.90;134.67;;;;;;;;;;5064126;28;20335;-78
2022/12/10 14:06:22;;;;;;;313.80;132.83;;;;;;;;;;5067098;28;20755;-77
2022/12/10 14:08:57;;;;;;;263.33;111.30;;;;;;;;;;5065305;28;20275;-77
2022/12/10 14:12:14;;;;;;;450.03;234.07;;;;;;;;;;5065065;28;20778;-77
2022/12/10 14:14:43;;;;;;;128.77;61.70;;;;;;;;;;5063369;28;20260;-78
2022/12/10 14:17:17;;;;;;;62.13;28.97;;;;;;;;;;5082681;28;20263;-77
2022/12/10 14:19:44;;;;;;;107.77;61.70;;;;;;;;;;5058107;28;20256;-78
2022/12/10 14:22:18;;;;;;;76.53;37.87;;;;;;;;;;5053420;28;20171;-78
2022/12/10 14:24:44;;;;;;;58.90;28.50;;;;;;;;;;5056739;28;20025;-78
2022/12/10 14:27:15;;;;;;;58.93;27.13;;;;;;;;;;5062469;28;20054;-79
2022/12/10 14:29:46;;;;;;;59.83;28.20;;;;;;;;;;5066613;28;20248;-78
2022/12/10 14:32:14;;;;;;;62.53;30.43;;;;;;;;;;5069938;28;20279;-79
2022/12/10 14:34:40;;;;;;;56.47;28.57;;;;;;;;;;5068272;28;20020;-78
2022/12/10 14:37:06;;;;;;;65.27;33.43;;;;;;;;;;5058805;28;20360;-77
2022/12/10 14:39:34;;;;;;;65.67;31.87;;;;;;;;;;5056731;28;20260;-79
2022/12/10 14:42:02;;;;;;;66.37;31.80;;;;;;;;;;5070813;28;20425;-79
2022/12/10 14:44:28;;;;;;;63.17;31.73;;;;;;;;;;5078630;28;20037;-78